KMHK/MHK METAR and TAF weather

Enter ICAO airport designator
Station Type Date Time Source
KMHK METAR 2021/07/30 05:52 UTC NOAA

KMHK 300552Z AUTO 00000KT 10SM CLR 25/22 A3003 RMK AO2 SLP158 T02500217 10356 20244 403830222 50009


Station Type Date Time Source
KMHK Decoded METAR 2021/07/30 05:52 UTC NOAA

MANHATTAN REGIONAL AIRPORT, KS, United States (KMHK) 39-08N 96-41W 317M
Jul 30, 2021 - 01:52 AM EDT / 2021.07.30 0552 UTC
Wind: Calm:0
Visibility: 10 mile(s):0
Sky conditions: clear
Temperature: 77.0 F (25.0 C)
Dew Point: 71.1 F (21.7 C)
Relative Humidity: 81%
Pressure (altimeter): 30.03 in. Hg (1016 hPa)
Pressure tendency: 0.03 inches (0.9 hPa) higher than three hours ago
ob: KMHK 300552Z AUTO 00000KT 10SM CLR 25/22 A3003 RMK AO2 SLP158 T02500217 10356 20244 403830222 50009
cycle: 6

Station Type Date Time Source
KMHK TAF 2021/07/30 06:22 UTC NOAA

TAF KMHK 300520Z 3006/3106 18007KT P6SM SCT250

Example: see airport list